Bookmark and Share
Track history (hours):
 

Louisiana Responder

More information available from US FCC via Universal Licensing System and Coast Guard Vessel Documentation Center.

Last reported at 2014-Mar-21 11:30 UTC. Time now 2014-Apr-18 13:12 UTC.
Position N 29°21' W 089°28'.
Warning: this ship's position is 28 days out of date.

Length 66 m; draft 4 m.

Type: Pollution control. MMSI: 366592000.

NotesDate/timePositionNaut miles runAvg speedWind from/ knotsBaromVisibWave heightAir tempDewpointWater temp
2014-Mar-21 11:30N 29°21' W 089°28'0 0.0
2014-Mar-21 10:33N 29°21' W 089°28'  
2014-Mar-13 15:33N 29°28' W 091°17'8 5.9
2014-Mar-13 14:10N 29°35' W 091°12'4 6.0
2014-Mar-13 13:33N 29°37' W 091°08'3 2.6
2014-Mar-13 12:33N 29°39' W 091°07'0 0.0
2014-Mar-13 11:33N 29°39' W 091°07'0 0.0
2014-Mar-13 10:33N 29°39' W 091°07'0 0.0
2014-Mar-13 09:33N 29°39' W 091°07'0 0.0
2014-Mar-13 08:33N 29°39' W 091°07'0 0.0
2014-Mar-13 07:33N 29°39' W 091°07'0 0.0
2014-Mar-13 06:33N 29°39' W 091°07'0 0.0
2014-Mar-13 05:33N 29°39' W 091°07'0 0.0
2014-Mar-13 04:30N 29°39' W 091°07'0 0.0
2014-Mar-13 03:33N 29°39' W 091°07'0 0.0
2014-Mar-13 02:33N 29°39' W 091°07'0 0.0
2014-Mar-13 01:33N 29°39' W 091°07'0 0.0
2014-Mar-13 00:33N 29°39' W 091°07'0 0.0
2014-Mar-12 23:30N 29°39' W 091°07'0 0.0
2014-Mar-12 22:33N 29°39' W 091°07'0 0.0
2014-Mar-12 21:30N 29°39' W 091°07'0 0.0
2014-Mar-12 20:33N 29°39' W 091°07'0 0.0
2014-Mar-12 19:33N 29°39' W 091°07'0 0.0
2014-Mar-12 18:33N 29°39' W 091°07'0 0.0
2014-Mar-12 17:33N 29°39' W 091°07'0 0.0
2014-Mar-12 16:33N 29°39' W 091°07'0 0.0
2014-Mar-12 15:30N 29°39' W 091°07'0 0.0
2014-Mar-12 14:32N 29°39' W 091°07'1 1.1
2014-Mar-12 13:34N 29°40' W 091°08'1 0.8
2014-Mar-12 12:33N 29°39' W 091°07'0 0.0
2014-Mar-12 11:33N 29°39' W 091°07'0 0.0
2014-Mar-12 10:33N 29°39' W 091°07'0 0.0
2014-Mar-12 09:33N 29°39' W 091°07'0 0.0
2014-Mar-12 08:33N 29°39' W 091°07'0 0.0
2014-Mar-12 07:33N 29°39' W 091°07'0 0.0
2014-Mar-12 06:33N 29°39' W 091°07'0 0.0
2014-Mar-12 05:33N 29°39' W 091°07'0 0.0
2014-Mar-12 04:33N 29°39' W 091°07'0 0.0
2014-Mar-12 03:33N 29°39' W 091°07'0 0.0
2014-Mar-12 02:33N 29°39' W 091°07'0 0.0
2014-Mar-12 01:33N 29°39' W 091°07'0 0.0
2014-Mar-12 00:33N 29°39' W 091°07'0 0.0
2014-Mar-11 23:33N 29°39' W 091°07'0 0.0
2014-Mar-11 22:33N 29°39' W 091°07'0 0.0
2014-Mar-11 21:33N 29°39' W 091°07'0 0.0
2014-Mar-11 20:32N 29°39' W 091°07'0 0.0
2014-Mar-11 19:32N 29°39' W 091°07'0 0.0
2014-Mar-11 18:32N 29°39' W 091°07'0 0.0
2014-Mar-11 17:32N 29°39' W 091°07'0 0.0
2014-Mar-11 16:32N 29°39' W 091°07'0 0.0
2014-Mar-11 15:32N 29°39' W 091°07'0 0.0
2014-Mar-11 14:32N 29°39' W 091°07'0 0.0
2014-Mar-11 13:32N 29°39' W 091°07'0 0.0
2014-Mar-11 12:32N 29°39' W 091°07'0 0.0
2014-Mar-11 11:32N 29°39' W 091°07'  

Dump ship's entire track history

sailing weather and tide predictions

Louisiana Responder — WBO8576 — position and weather